createdAt,value
2022-07-29T00:02:36.849Z,3.43
2022-07-29T00:07:39.691Z,3.93
2022-07-29T00:12:43.870Z,3.90
2022-07-29T00:17:47.049Z,4.00
2022-07-29T00:22:49.828Z,3.83
2022-07-29T00:27:53.986Z,4.40
2022-07-29T00:32:56.864Z,4.00
2022-07-29T00:37:59.909Z,4.10
2022-07-29T00:43:06.385Z,3.72
2022-07-29T00:48:09.879Z,4.10
2022-07-29T00:53:14.650Z,4.03
2022-07-29T00:58:18.882Z,3.80
2022-07-29T01:03:21.675Z,4.18
2022-07-29T01:08:25.798Z,4.20
2022-07-29T01:13:31.824Z,3.70
2022-07-29T01:18:38.056Z,4.10
2022-07-29T01:23:56.538Z,3.92
2022-07-29T01:29:13.333Z,4.33
2022-07-29T01:34:23.016Z,4.55
2022-07-29T01:39:33.568Z,4.15
2022-07-29T01:44:41.688Z,4.00
2022-07-29T01:49:50.975Z,4.13
2022-07-29T01:54:59.708Z,4.78
2022-07-29T02:00:04.891Z,4.13
2022-07-29T02:05:11.445Z,4.40
2022-07-29T02:10:16.138Z,4.10
2022-07-29T02:15:23.801Z,4.03
2022-07-29T02:20:28.320Z,4.50
2022-07-29T02:25:37.474Z,4.30
2022-07-29T02:30:45.273Z,4.20
2022-07-29T02:35:50.640Z,5.10
2022-07-29T02:40:55.297Z,4.17
2022-07-29T02:46:03.068Z,4.80
2022-07-29T02:51:10.284Z,4.30
2022-07-29T02:56:22.344Z,4.40
2022-07-29T03:01:35.134Z,4.78
2022-07-29T03:06:40.709Z,4.68
2022-07-29T03:11:50.393Z,4.50
2022-07-29T03:16:55.469Z,5.30
2022-07-29T03:21:59.173Z,4.70
2022-07-29T03:27:02.474Z,4.77
2022-07-29T03:32:08.949Z,4.70
2022-07-29T03:37:11.945Z,4.53
2022-07-29T03:42:17.681Z,4.53
2022-07-29T03:47:39.324Z,4.70
2022-07-29T03:52:51.245Z,4.57
2022-07-29T03:57:54.343Z,4.70
2022-07-29T04:02:59.027Z,4.57
2022-07-29T04:08:01.913Z,4.80
2022-07-29T04:13:04.763Z,4.45
2022-07-29T04:18:08.931Z,4.57
2022-07-29T04:23:11.932Z,4.73
2022-07-29T04:28:14.730Z,4.70
2022-07-29T04:33:21.249Z,4.68
2022-07-29T04:38:27.653Z,4.20
2022-07-29T04:43:30.430Z,4.50
2022-07-29T04:48:41.064Z,4.30
2022-07-29T04:53:43.933Z,4.13
2022-07-29T04:58:46.728Z,4.15
2022-07-29T05:03:50.961Z,4.07
2022-07-29T05:08:53.753Z,4.27
2022-07-29T05:13:56.498Z,4.27
2022-07-29T05:19:00.647Z,3.95
2022-07-29T05:24:03.459Z,3.97
2022-07-29T05:29:06.349Z,3.27
2022-07-29T05:34:10.522Z,3.50
2022-07-29T05:39:14.606Z,3.05
2022-07-29T05:44:17.718Z,3.20
2022-07-29T05:49:27.015Z,3.45
2022-07-29T05:54:30.306Z,2.95
2022-07-29T05:59:33.432Z,2.83
2022-07-29T06:04:37.658Z,2.60
2022-07-29T06:09:40.488Z,2.88
2022-07-29T06:14:43.370Z,2.70
2022-07-29T06:19:47.519Z,2.73
2022-07-29T06:24:50.340Z,2.60
2022-07-29T06:29:53.120Z,2.40
2022-07-29T06:35:24.410Z,2.70
2022-07-29T06:40:37.481Z,2.40
2022-07-29T06:45:42.351Z,2.40
2022-07-29T06:50:46.801Z,2.20
2022-07-29T06:55:49.640Z,2.40
2022-07-29T07:00:52.494Z,2.80
2022-07-29T07:05:57.363Z,2.63
2022-07-29T07:11:00.439Z,2.70
2022-07-29T07:16:03.523Z,3.00
2022-07-29T07:21:07.850Z,2.80
2022-07-29T07:26:11.809Z,2.40
2022-07-29T07:31:15.228Z,2.50
2022-07-29T07:36:19.419Z,2.45
2022-07-29T07:41:22.359Z,2.40
2022-07-29T07:46:25.220Z,2.13
2022-07-29T07:51:29.443Z,2.40
2022-07-29T07:56:35.281Z,2.22
2022-07-29T08:01:48.051Z,2.03
2022-07-29T08:07:00.896Z,2.22
2022-07-29T08:12:06.634Z,2.38
2022-07-29T08:17:09.447Z,2.23
2022-07-29T08:22:13.578Z,2.50
2022-07-29T08:27:41.809Z,2.42
2022-07-29T08:32:55.632Z,2.57
2022-07-29T08:38:00.307Z,2.57
2022-07-29T08:43:08.871Z,2.70
2022-07-29T08:48:11.688Z,2.60
2022-07-29T08:53:17.307Z,2.30
2022-07-29T08:58:23.239Z,3.00
2022-07-29T09:03:32.452Z,2.47
2022-07-29T09:08:37.329Z,2.80
2022-07-29T09:13:40.162Z,2.90
2022-07-29T09:18:44.222Z,2.70
2022-07-29T09:29:20.815Z,2.50
2022-07-29T09:34:27.266Z,2.40
2022-07-29T09:39:32.280Z,2.45
2022-07-29T09:44:49.023Z,2.70
2022-07-29T09:49:58.887Z,2.23
2022-07-29T09:55:09.028Z,2.53
2022-07-29T10:00:15.924Z,2.45
2022-07-29T10:05:22.717Z,2.60
2022-07-29T10:10:27.307Z,2.10
2022-07-29T10:15:33.672Z,2.50
2022-07-29T10:20:37.490Z,2.33
2022-07-29T10:25:45.671Z,2.30
2022-07-29T10:30:53.793Z,2.33
2022-07-29T10:36:27.017Z,2.20
2022-07-29T10:41:47.583Z,1.90
2022-07-29T10:46:52.620Z,2.13
2022-07-29T10:52:05.767Z,2.20
2022-07-29T10:57:21.610Z,2.00
2022-07-29T11:02:52.971Z,2.53
2022-07-29T11:08:26.455Z,2.00
2022-07-29T11:13:53.273Z,2.10
2022-07-29T11:19:29.770Z,2.30
2022-07-29T11:24:34.995Z,2.38
2022-07-29T11:29:41.539Z,2.13
2022-07-29T11:34:48.790Z,2.13
2022-07-29T11:40:13.111Z,2.30
2022-07-29T11:45:43.113Z,2.10
2022-07-29T11:50:44.494Z,2.07
2022-07-29T11:55:50.772Z,1.95
2022-07-29T12:00:56.311Z,2.00
2022-07-29T12:06:00.661Z,2.10
2022-07-29T12:11:03.566Z,1.80
2022-07-29T12:16:07.145Z,2.00
2022-07-29T12:21:12.454Z,2.03
2022-07-29T12:26:25.473Z,1.77
2022-07-29T12:31:41.985Z,1.63
2022-07-29T12:36:48.737Z,1.80
2022-07-29T12:41:51.534Z,1.77
2022-07-29T12:47:04.241Z,1.85
2022-07-29T12:52:30.762Z,2.00
2022-07-29T12:57:33.904Z,1.80
2022-07-29T13:02:37.536Z,1.90
2022-07-29T13:07:54.964Z,1.95
2022-07-29T13:13:08.896Z,1.90
2022-07-29T13:18:29.731Z,3.10
2022-07-29T13:23:38.405Z,2.47
2022-07-29T13:28:44.103Z,1.83
2022-07-29T13:33:47.220Z,1.90
2022-07-29T13:38:51.402Z,1.88
2022-07-29T13:43:54.257Z,2.00
2022-07-29T13:48:57.109Z,2.00
2022-07-29T13:54:01.590Z,2.10
2022-07-29T13:59:05.472Z,2.00
2022-07-29T14:04:08.390Z,2.03
2022-07-29T14:09:12.637Z,2.30
2022-07-29T14:14:15.467Z,2.42
2022-07-29T14:19:18.346Z,2.50
2022-07-29T14:24:23.785Z,2.10
2022-07-29T14:29:38.273Z,2.25
2022-07-29T14:34:41.422Z,2.10
2022-07-29T14:39:45.598Z,2.10
2022-07-29T14:44:50.321Z,2.30
2022-07-29T14:55:19.572Z,2.30
2022-07-29T15:00:23.391Z,2.13
2022-07-29T15:05:26.314Z,2.05
2022-07-29T15:10:31.203Z,2.10
2022-07-29T15:15:34.359Z,2.20
2022-07-29T15:20:37.537Z,2.08
2022-07-29T15:25:44.599Z,1.92
2022-07-29T15:30:48.273Z,2.13
2022-07-29T15:35:51.316Z,2.20
2022-07-29T15:40:57.274Z,2.00
2022-07-29T15:46:17.932Z,2.15
2022-07-29T15:51:20.871Z,2.20
2022-07-29T15:56:25.248Z,2.60
2022-07-29T16:01:28.555Z,2.25
2022-07-29T16:06:32.132Z,2.50
2022-07-29T16:11:36.766Z,2.20
2022-07-29T16:16:41.842Z,2.30
2022-07-29T16:21:45.356Z,2.60
2022-07-29T16:26:52.075Z,2.00
2022-07-29T16:31:59.468Z,2.67
2022-07-29T16:37:05.947Z,2.70
2022-07-29T16:42:36.913Z,3.00
2022-07-29T16:47:41.181Z,2.47
2022-07-29T16:52:52.605Z,2.53
2022-07-29T16:57:57.416Z,3.10
2022-07-29T17:03:14.873Z,2.35
2022-07-29T17:08:27.258Z,3.00
2022-07-29T17:13:32.291Z,2.50
2022-07-29T17:18:45.249Z,2.43
2022-07-29T17:23:52.027Z,2.42
2022-07-29T17:28:57.109Z,2.70
2022-07-29T17:34:03.387Z,3.10
2022-07-29T17:39:08.567Z,2.47
2022-07-29T17:44:13.652Z,2.28
2022-07-29T17:49:16.870Z,2.60
2022-07-29T17:54:20.422Z,2.30
2022-07-29T17:59:25.174Z,2.72
2022-07-29T18:04:29.298Z,2.40
2022-07-29T18:09:35.489Z,2.47
2022-07-29T18:14:58.473Z,2.30
2022-07-29T18:20:02.260Z,2.45
2022-07-29T18:25:05.899Z,2.30
2022-07-29T18:30:20.381Z,2.33
2022-07-29T18:35:23.653Z,2.33
2022-07-29T18:40:26.775Z,3.13
2022-07-29T18:45:36.668Z,2.47
2022-07-29T18:50:45.688Z,2.58
2022-07-29T18:56:02.405Z,2.10
2022-07-29T19:01:07.172Z,2.30
2022-07-29T19:06:21.613Z,2.17
2022-07-29T19:11:26.996Z,2.90
2022-07-29T19:16:31.260Z,2.33
2022-07-29T19:21:34.315Z,2.40
2022-07-29T19:26:39.343Z,2.17
2022-07-29T19:31:44.387Z,2.40
2022-07-29T19:36:50.256Z,2.47
2022-07-29T19:42:03.379Z,2.40
2022-07-29T19:47:12.158Z,2.63
2022-07-29T19:52:26.837Z,2.63
2022-07-29T19:57:35.937Z,2.35
2022-07-29T20:02:45.851Z,2.67
2022-07-29T20:08:09.991Z,2.73
2022-07-29T20:13:13.136Z,2.75
2022-07-29T20:23:50.627Z,2.67
2022-07-29T20:28:53.988Z,3.05
2022-07-29T20:33:59.064Z,2.85
2022-07-29T20:39:02.316Z,2.60
2022-07-29T20:44:06.327Z,2.83
2022-07-29T20:49:14.359Z,2.65
2022-07-29T20:54:19.970Z,2.85
2022-07-29T20:59:23.149Z,2.73
2022-07-29T21:04:30.924Z,2.90
2022-07-29T21:09:35.596Z,2.75
2022-07-29T21:14:57.920Z,2.70
2022-07-29T21:20:03.192Z,2.95
2022-07-29T21:25:07.022Z,2.90
2022-07-29T21:30:10.898Z,2.87
2022-07-29T21:35:30.326Z,2.80
2022-07-29T21:40:37.977Z,3.05
2022-07-29T21:45:40.832Z,3.00
2022-07-29T21:50:45.174Z,2.70
2022-07-29T21:55:48.416Z,3.20
2022-07-29T22:00:51.249Z,2.75
2022-07-29T22:05:56.136Z,2.93
2022-07-29T22:10:59.012Z,3.00
2022-07-29T22:16:01.800Z,3.50
2022-07-29T22:21:06.221Z,2.97
2022-07-29T22:26:09.187Z,2.80
2022-07-29T22:31:12.272Z,3.13
2022-07-29T22:36:16.556Z,3.13
2022-07-29T22:41:19.402Z,2.70
2022-07-29T22:46:22.293Z,3.17
2022-07-29T22:51:26.913Z,2.88
2022-07-29T22:56:29.827Z,2.93
2022-07-29T23:01:37.258Z,3.10
2022-07-29T23:06:42.299Z,2.92
2022-07-29T23:11:45.129Z,3.00
2022-07-29T23:16:48.132Z,3.17
2022-07-29T23:21:52.381Z,2.80
2022-07-29T23:26:55.239Z,3.10
2022-07-29T23:31:58.033Z,2.90
2022-07-29T23:37:02.601Z,2.70
2022-07-29T23:42:05.808Z,2.80
2022-07-29T23:47:08.644Z,3.00
2022-07-29T23:52:12.876Z,2.72
2022-07-29T23:57:15.773Z,2.70
